createdAt,value
2023-05-15T00:01:18.262Z,14.26
2023-05-15T00:04:06.258Z,14.19
2023-05-15T00:06:54.154Z,14.35
2023-05-15T00:09:41.924Z,14.37
2023-05-15T00:12:29.684Z,14.37
2023-05-15T00:15:17.620Z,14.36
2023-05-15T00:18:05.529Z,14.25
2023-05-15T00:20:53.750Z,14.35
2023-05-15T00:23:41.441Z,14.22
2023-05-15T00:26:29.113Z,14.18
2023-05-15T00:29:16.835Z,14.15
2023-05-15T00:32:06.033Z,14.23
2023-05-15T00:34:53.773Z,14.32
2023-05-15T00:37:41.605Z,14.19
2023-05-15T00:40:32.451Z,14.23
2023-05-15T00:43:20.700Z,14.29
2023-05-15T00:46:09.168Z,14.22
2023-05-15T00:48:58.338Z,14.18
2023-05-15T00:51:46.000Z,14.14
2023-05-15T00:54:33.671Z,14.10
2023-05-15T00:57:23.684Z,14.01
2023-05-15T01:00:12.504Z,14.05
2023-05-15T01:03:02.101Z,13.95
2023-05-15T01:05:50.131Z,13.89
2023-05-15T01:08:46.605Z,13.90
2023-05-15T01:11:38.232Z,13.83
2023-05-15T01:14:26.037Z,13.71
2023-05-15T01:17:13.694Z,13.71
2023-05-15T01:20:04.321Z,13.54
2023-05-15T01:23:11.575Z,13.62
2023-05-15T01:26:30.997Z,13.60
2023-05-15T01:29:31.162Z,13.60
2023-05-15T01:32:31.545Z,13.42
2023-05-15T01:35:29.389Z,13.26
2023-05-15T01:38:24.272Z,13.36
2023-05-15T01:41:35.654Z,13.43
2023-05-15T01:44:32.288Z,13.46
2023-05-15T01:47:33.882Z,13.48
2023-05-15T01:50:22.808Z,13.57
2023-05-15T01:53:11.767Z,13.44
2023-05-15T01:56:00.278Z,13.58
2023-05-15T01:58:49.685Z,13.51
2023-05-15T02:01:38.621Z,13.43
2023-05-15T02:04:26.960Z,13.32
2023-05-15T02:07:15.172Z,13.17
2023-05-15T02:10:04.054Z,13.17
2023-05-15T02:12:53.099Z,13.03
2023-05-15T02:15:42.518Z,13.05
2023-05-15T02:18:30.459Z,12.88
2023-05-15T02:21:18.586Z,12.87
2023-05-15T02:24:06.502Z,12.83
2023-05-15T02:27:01.203Z,12.76
2023-05-15T02:30:33.657Z,12.69
2023-05-15T02:33:46.248Z,12.67
2023-05-15T02:36:40.920Z,12.60
2023-05-15T02:39:30.494Z,12.47
2023-05-15T02:42:23.066Z,12.58
2023-05-15T02:45:12.054Z,12.42
2023-05-15T02:48:04.688Z,12.30
2023-05-15T02:50:53.213Z,12.27
2023-05-15T02:53:42.518Z,12.31
2023-05-15T02:56:30.288Z,12.30
2023-05-15T02:59:20.252Z,11.98
2023-05-15T03:02:07.989Z,12.35
2023-05-15T03:05:00.699Z,12.35
2023-05-15T03:07:48.621Z,12.17
2023-05-15T03:10:36.340Z,12.05
2023-05-15T03:13:24.294Z,12.23
2023-05-15T03:16:12.047Z,12.11
2023-05-15T03:18:59.918Z,12.14
2023-05-15T03:21:47.658Z,12.29
2023-05-15T03:24:35.706Z,12.04
2023-05-15T03:27:23.519Z,12.10
2023-05-15T03:30:14.547Z,12.08
2023-05-15T03:33:04.238Z,12.11
2023-05-15T03:35:52.851Z,12.09
2023-05-15T03:38:40.889Z,12.08
2023-05-15T03:41:29.188Z,12.19
2023-05-15T03:44:19.635Z,12.16
2023-05-15T03:47:07.841Z,12.22
2023-05-15T03:49:55.471Z,11.99
2023-05-15T03:52:43.254Z,12.18
2023-05-15T03:55:31.029Z,12.14
2023-05-15T03:58:19.363Z,12.34
2023-05-15T04:01:07.961Z,12.30
2023-05-15T04:03:55.791Z,12.24
2023-05-15T04:06:44.006Z,12.40
2023-05-15T04:09:31.702Z,12.40
2023-05-15T04:12:19.495Z,12.53
2023-05-15T04:15:21.960Z,12.66
2023-05-15T04:18:09.865Z,12.69
2023-05-15T04:20:57.594Z,12.82
2023-05-15T04:23:45.516Z,13.06
2023-05-15T04:26:33.693Z,13.16
2023-05-15T04:29:21.439Z,13.30
2023-05-15T04:32:09.157Z,13.46
2023-05-15T04:34:56.948Z,13.61
2023-05-15T04:37:45.994Z,13.77
2023-05-15T04:40:33.645Z,13.75
2023-05-15T04:43:21.353Z,13.94
2023-05-15T04:46:09.050Z,14.04
2023-05-15T04:48:56.898Z,14.03
2023-05-15T04:51:44.622Z,14.33
2023-05-15T04:54:32.381Z,14.10
2023-05-15T04:57:20.076Z,14.33
2023-05-15T05:00:12.478Z,14.54
2023-05-15T05:03:02.534Z,14.75
2023-05-15T05:05:50.278Z,14.76
2023-05-15T05:08:37.961Z,15.01
2023-05-15T05:11:25.918Z,15.06
2023-05-15T05:14:16.684Z,15.36
2023-05-15T05:17:04.811Z,15.63
2023-05-15T05:19:52.529Z,15.85
2023-05-15T05:22:41.068Z,15.71
2023-05-15T05:25:28.798Z,15.97
2023-05-15T05:28:16.662Z,16.12
2023-05-15T05:31:04.494Z,16.07
2023-05-15T05:33:53.006Z,16.28
2023-05-15T05:36:41.229Z,16.60
2023-05-15T05:39:28.888Z,16.22
2023-05-15T05:42:16.642Z,16.33
2023-05-15T05:45:07.516Z,16.16
2023-05-15T05:47:58.578Z,16.14
2023-05-15T05:50:46.367Z,16.10
2023-05-15T05:53:34.138Z,16.14
2023-05-15T05:56:22.984Z,16.12
2023-05-15T05:59:11.116Z,16.25
2023-05-15T06:01:58.881Z,16.40
2023-05-15T06:04:46.712Z,16.31
2023-05-15T06:07:35.423Z,16.40
2023-05-15T06:10:23.388Z,16.49
2023-05-15T06:13:11.936Z,16.39
2023-05-15T06:15:59.621Z,16.47
2023-05-15T06:18:47.256Z,16.82
2023-05-15T06:21:35.092Z,16.92
2023-05-15T06:24:22.839Z,17.18
2023-05-15T06:27:10.698Z,17.22
2023-05-15T06:29:59.568Z,17.28
2023-05-15T06:32:47.353Z,17.37
2023-05-15T06:35:37.228Z,17.55
2023-05-15T06:38:48.187Z,17.59
2023-05-15T06:41:36.282Z,17.81
2023-05-15T06:44:25.609Z,18.00
2023-05-15T06:47:13.708Z,18.18
2023-05-15T06:50:01.498Z,18.37
2023-05-15T06:52:51.576Z,18.70
2023-05-15T06:55:39.291Z,18.78
2023-05-15T06:58:27.117Z,19.33
2023-05-15T07:01:14.920Z,19.72
2023-05-15T07:04:03.021Z,19.96
2023-05-15T07:06:50.744Z,20.04
2023-05-15T07:09:38.451Z,20.17
2023-05-15T07:12:26.828Z,20.19
2023-05-15T07:15:14.589Z,20.11
2023-05-15T07:18:02.422Z,20.12
2023-05-15T07:20:50.210Z,19.96
2023-05-15T07:23:38.050Z,19.88
2023-05-15T07:26:34.162Z,19.96
2023-05-15T07:29:24.295Z,19.78
2023-05-15T07:32:11.849Z,19.44
2023-05-15T07:34:59.640Z,19.66
2023-05-15T07:37:47.322Z,19.79
2023-05-15T07:43:22.609Z,20.50
2023-05-15T07:46:10.315Z,20.73
2023-05-15T07:48:58.035Z,20.99
2023-05-15T07:51:45.917Z,21.23
2023-05-15T07:54:33.568Z,21.49
2023-05-15T07:57:21.643Z,21.19
2023-05-15T08:00:13.898Z,20.87
2023-05-15T08:03:01.982Z,21.18
2023-05-15T08:05:49.727Z,21.15
2023-05-15T08:08:37.480Z,21.20
2023-05-15T08:11:25.233Z,21.19
2023-05-15T08:14:13.870Z,21.16
2023-05-15T08:17:20.988Z,21.59
2023-05-15T08:20:09.325Z,21.76
2023-05-15T08:22:56.985Z,22.82
2023-05-15T08:25:44.719Z,23.00
2023-05-15T08:28:32.391Z,22.59
2023-05-15T08:31:20.162Z,22.73
2023-05-15T08:34:07.956Z,22.68
2023-05-15T08:36:56.516Z,22.84
2023-05-15T08:39:47.292Z,22.24
2023-05-15T08:42:55.708Z,21.88
2023-05-15T08:45:44.237Z,22.06
2023-05-15T08:48:36.457Z,22.23
2023-05-15T08:51:24.849Z,22.21
2023-05-15T08:54:12.987Z,22.38
2023-05-15T08:57:03.951Z,22.52
2023-05-15T08:59:53.046Z,23.22
2023-05-15T09:02:42.987Z,23.92
2023-05-15T09:05:32.123Z,23.80
2023-05-15T09:08:23.202Z,23.55
2023-05-15T09:11:12.445Z,23.17
2023-05-15T09:14:00.321Z,23.46
2023-05-15T09:16:51.222Z,23.17
2023-05-15T09:19:42.573Z,23.04
2023-05-15T09:22:34.667Z,22.98
2023-05-15T09:25:41.240Z,23.23
2023-05-15T09:28:31.218Z,22.99
2023-05-15T09:31:20.551Z,22.78
2023-05-15T09:34:10.378Z,22.12
2023-05-15T09:36:58.435Z,21.82
2023-05-15T09:39:46.529Z,21.34
2023-05-15T09:42:36.638Z,21.52
2023-05-15T09:45:30.349Z,21.45
2023-05-15T09:48:18.517Z,21.28
2023-05-15T09:51:14.629Z,21.02
2023-05-15T09:54:04.593Z,20.91
2023-05-15T09:56:52.313Z,20.63
2023-05-15T09:59:48.076Z,20.54
2023-05-15T10:02:36.542Z,20.27
2023-05-15T10:05:41.992Z,20.04
2023-05-15T10:08:34.713Z,19.76
2023-05-15T10:11:24.631Z,19.92
2023-05-15T10:14:14.355Z,19.91
2023-05-15T10:17:02.465Z,19.81
2023-05-15T10:19:58.281Z,19.87
2023-05-15T10:22:48.972Z,19.76
2023-05-15T10:25:51.088Z,19.57
2023-05-15T10:28:39.313Z,19.55
2023-05-15T10:31:29.552Z,19.63
2023-05-15T10:34:19.107Z,19.64
2023-05-15T10:37:07.836Z,19.68
2023-05-15T10:39:58.253Z,19.53
2023-05-15T10:42:49.663Z,19.47
2023-05-15T10:45:40.622Z,19.69
2023-05-15T10:48:29.341Z,19.85
2023-05-15T10:51:27.000Z,20.13
2023-05-15T10:54:15.415Z,20.12
2023-05-15T10:57:03.094Z,20.06
2023-05-15T10:59:51.935Z,20.28
2023-05-15T11:02:39.824Z,19.99
2023-05-15T11:05:27.666Z,20.06
2023-05-15T11:08:19.717Z,20.31
2023-05-15T11:11:08.109Z,20.48
2023-05-15T11:14:08.149Z,20.40
2023-05-15T11:16:55.861Z,20.67
2023-05-15T11:20:01.826Z,20.82
2023-05-15T11:22:59.488Z,21.06
2023-05-15T11:25:55.222Z,21.20
2023-05-15T11:28:43.983Z,21.41
2023-05-15T11:31:31.732Z,21.44
2023-05-15T11:34:34.522Z,21.42
2023-05-15T11:37:24.825Z,20.95
2023-05-15T11:40:21.611Z,21.01
2023-05-15T11:43:26.515Z,20.85
2023-05-15T11:46:15.436Z,21.05
2023-05-15T11:49:03.310Z,20.74
2023-05-15T11:51:51.787Z,21.02
2023-05-15T11:54:39.558Z,21.05
2023-05-15T11:57:27.469Z,20.92
2023-05-15T12:00:16.043Z,20.71
2023-05-15T12:03:04.211Z,20.80
2023-05-15T12:05:59.480Z,20.61
2023-05-15T12:08:54.016Z,20.50
2023-05-15T12:11:49.223Z,20.38
2023-05-15T12:14:38.384Z,20.77
2023-05-15T12:17:26.323Z,20.64
2023-05-15T12:20:18.723Z,20.68
2023-05-15T12:23:08.507Z,20.68
2023-05-15T12:26:03.313Z,20.78
2023-05-15T12:28:51.956Z,21.10
2023-05-15T12:31:40.161Z,21.23
2023-05-15T12:34:27.973Z,21.16
2023-05-15T12:37:18.128Z,21.38
2023-05-15T12:40:12.256Z,21.65
2023-05-15T12:43:00.393Z,21.67
2023-05-15T12:45:55.496Z,21.68
2023-05-15T12:48:46.067Z,22.05
2023-05-15T12:51:33.819Z,22.20
2023-05-15T12:54:24.620Z,22.31
2023-05-15T12:57:13.051Z,22.41
2023-05-15T13:00:00.957Z,22.40
2023-05-15T13:02:56.422Z,22.29
2023-05-15T13:05:45.823Z,22.13
2023-05-15T13:08:33.717Z,22.11
2023-05-15T13:11:22.965Z,22.18
2023-05-15T13:14:17.808Z,22.35
2023-05-15T13:17:06.089Z,22.52
2023-05-15T13:19:56.147Z,22.53
2023-05-15T13:22:43.921Z,22.70
2023-05-15T13:25:32.411Z,22.60
2023-05-15T13:28:20.202Z,22.79
2023-05-15T13:31:08.024Z,22.70
2023-05-15T13:33:55.983Z,22.62
2023-05-15T13:36:43.679Z,22.48
2023-05-15T13:39:31.374Z,22.31
2023-05-15T13:42:21.522Z,22.30
2023-05-15T13:45:14.374Z,22.16
2023-05-15T13:48:02.168Z,21.97
2023-05-15T13:50:49.900Z,22.32
2023-05-15T13:53:39.650Z,22.30
2023-05-15T13:56:27.452Z,22.31
2023-05-15T13:59:15.252Z,22.18
2023-05-15T14:02:03.009Z,22.11
2023-05-15T14:04:50.676Z,22.50
2023-05-15T14:07:41.144Z,22.29
2023-05-15T14:10:31.972Z,22.58
2023-05-15T14:13:19.715Z,22.11
2023-05-15T14:16:07.735Z,22.08
2023-05-15T14:18:57.610Z,21.84
2023-05-15T14:21:45.552Z,22.20
2023-05-15T14:24:33.341Z,21.85
2023-05-15T14:27:21.213Z,21.88
2023-05-15T14:30:09.550Z,21.75
2023-05-15T14:32:57.237Z,21.53
2023-05-15T14:35:45.052Z,21.74
2023-05-15T14:38:32.923Z,21.74
2023-05-15T14:41:23.028Z,21.59
2023-05-15T14:44:10.837Z,21.57
2023-05-15T14:47:08.962Z,21.34
2023-05-15T14:49:59.711Z,21.70
2023-05-15T14:52:53.006Z,21.73
2023-05-15T14:55:48.275Z,21.86
2023-05-15T14:58:38.245Z,21.98
2023-05-15T15:01:42.260Z,22.01
2023-05-15T15:04:34.625Z,22.09
2023-05-15T15:07:22.375Z,22.00
2023-05-15T15:10:10.198Z,21.86
2023-05-15T15:12:58.288Z,21.80
2023-05-15T15:15:46.942Z,21.87
2023-05-15T15:18:34.907Z,21.87
2023-05-15T15:21:22.849Z,21.70
2023-05-15T15:24:13.509Z,21.73
2023-05-15T15:27:01.264Z,21.57
2023-05-15T15:29:49.025Z,21.61
2023-05-15T15:32:38.018Z,21.61
2023-05-15T15:35:25.939Z,21.59
2023-05-15T15:38:14.673Z,21.50
2023-05-15T15:41:03.908Z,21.36
2023-05-15T15:43:51.761Z,21.30
2023-05-15T15:46:39.483Z,21.41
2023-05-15T15:49:31.432Z,21.29
2023-05-15T15:52:19.326Z,21.37
2023-05-15T15:55:07.665Z,21.37
2023-05-15T15:57:58.329Z,21.13
2023-05-15T16:00:48.577Z,21.21
2023-05-15T16:03:38.836Z,20.96
2023-05-15T16:06:29.589Z,20.97
2023-05-15T16:09:20.056Z,21.05
2023-05-15T16:12:07.896Z,21.07
2023-05-15T16:14:55.609Z,21.09
2023-05-15T16:17:44.089Z,21.10
2023-05-15T16:20:32.896Z,21.09
2023-05-15T16:23:22.149Z,20.98
2023-05-15T16:26:11.405Z,21.01
2023-05-15T16:29:01.720Z,21.02
2023-05-15T16:31:49.952Z,20.95
2023-05-15T16:34:38.007Z,20.74
2023-05-15T16:37:25.799Z,20.56
2023-05-15T16:40:13.732Z,20.64
2023-05-15T16:43:01.385Z,20.61
2023-05-15T16:45:50.704Z,20.51
2023-05-15T16:48:38.512Z,20.13
2023-05-15T16:51:26.644Z,20.44
2023-05-15T16:54:14.449Z,20.29
2023-05-15T16:57:02.197Z,20.33
2023-05-15T16:59:50.230Z,20.20
2023-05-15T17:02:38.253Z,20.16
2023-05-15T17:05:25.941Z,20.06
2023-05-15T17:08:13.765Z,19.92
2023-05-15T17:11:01.566Z,19.88
2023-05-15T17:13:49.292Z,19.82
2023-05-15T17:16:37.142Z,19.62
2023-05-15T17:19:24.802Z,19.66
2023-05-15T17:22:12.452Z,19.49
2023-05-15T17:25:03.185Z,19.46
2023-05-15T17:27:50.967Z,19.38
2023-05-15T17:30:40.961Z,19.16
2023-05-15T17:33:28.729Z,19.23
2023-05-15T17:36:16.567Z,19.13
2023-05-15T17:39:06.814Z,19.05
2023-05-15T17:41:54.558Z,18.93
2023-05-15T17:44:42.256Z,18.87
2023-05-15T17:47:30.083Z,18.75
2023-05-15T17:50:17.763Z,18.55
2023-05-15T17:53:06.105Z,18.52
2023-05-15T17:55:53.949Z,18.12
2023-05-15T17:58:41.605Z,18.32
2023-05-15T18:01:29.514Z,18.24
2023-05-15T18:04:17.484Z,18.08
2023-05-15T18:07:05.627Z,18.25
2023-05-15T18:09:53.471Z,18.13
2023-05-15T18:12:41.302Z,18.08
2023-05-15T18:15:37.912Z,18.01
2023-05-15T18:18:26.066Z,17.93
2023-05-15T18:21:14.016Z,17.82
2023-05-15T18:24:01.781Z,17.79
2023-05-15T18:26:49.515Z,17.75
2023-05-15T18:29:37.217Z,17.79
2023-05-15T18:32:27.513Z,17.75
2023-05-15T18:35:18.419Z,17.63
2023-05-15T18:38:06.533Z,17.76
2023-05-15T18:40:54.271Z,17.78
2023-05-15T18:43:41.833Z,17.66
2023-05-15T18:46:31.437Z,17.64
2023-05-15T18:49:19.145Z,17.53
2023-05-15T18:52:06.900Z,17.55
2023-05-15T18:54:54.545Z,17.44
2023-05-15T18:57:42.693Z,17.51
2023-05-15T19:03:21.371Z,17.35
2023-05-15T19:06:09.150Z,17.26
2023-05-15T19:08:56.908Z,17.40
2023-05-15T19:11:46.946Z,17.36
2023-05-15T19:14:34.662Z,17.23
2023-05-15T19:17:24.489Z,17.37
2023-05-15T19:20:12.568Z,17.34
2023-05-15T19:23:00.286Z,17.42
2023-05-15T19:25:48.073Z,17.31
2023-05-15T19:28:35.849Z,17.30
2023-05-15T19:31:31.495Z,17.52
2023-05-15T19:34:20.180Z,17.56
2023-05-15T19:37:07.856Z,17.77
2023-05-15T19:39:55.625Z,18.00
2023-05-15T19:42:43.376Z,18.06
2023-05-15T19:45:31.127Z,18.10
2023-05-15T19:48:18.873Z,18.13
2023-05-15T19:51:09.604Z,18.12
2023-05-15T19:53:59.401Z,18.04
2023-05-15T19:56:47.167Z,17.93
2023-05-15T19:59:36.955Z,17.87
2023-05-15T20:02:24.756Z,17.82
2023-05-15T20:05:12.488Z,17.86
2023-05-15T20:08:01.228Z,17.91
2023-05-15T20:10:52.257Z,17.81
2023-05-15T20:13:39.957Z,17.78
2023-05-15T20:16:27.854Z,17.62
2023-05-15T20:19:17.182Z,17.53
2023-05-15T20:22:05.202Z,17.37
2023-05-15T20:24:53.084Z,17.29
2023-05-15T20:27:40.766Z,17.20
2023-05-15T20:30:29.038Z,17.16
2023-05-15T20:33:16.953Z,17.06
2023-05-15T20:36:05.552Z,17.03
2023-05-15T20:38:53.340Z,16.98
2023-05-15T20:41:41.113Z,16.96
2023-05-15T20:44:30.120Z,16.75
2023-05-15T20:47:18.044Z,16.80
2023-05-15T20:50:06.352Z,16.62
2023-05-15T20:52:54.048Z,16.69
2023-05-15T20:55:41.685Z,16.50
2023-05-15T20:58:29.391Z,16.62
2023-05-15T21:01:17.336Z,16.58
2023-05-15T21:04:05.345Z,16.42
2023-05-15T21:06:53.724Z,16.51
2023-05-15T21:09:41.550Z,16.59
2023-05-15T21:12:29.252Z,16.59
2023-05-15T21:15:16.981Z,16.44
2023-05-15T21:18:04.866Z,16.46
2023-05-15T21:20:53.150Z,16.31
2023-05-15T21:23:41.210Z,16.38
2023-05-15T21:26:29.172Z,16.21
2023-05-15T21:29:16.938Z,16.33
2023-05-15T21:32:06.395Z,16.27
2023-05-15T21:34:54.022Z,15.84
2023-05-15T21:37:41.762Z,16.23
2023-05-15T21:40:29.558Z,16.19
2023-05-15T21:43:17.231Z,16.14
2023-05-15T21:46:05.141Z,16.18
2023-05-15T21:48:53.191Z,16.05
2023-05-15T21:51:41.200Z,16.14
2023-05-15T21:54:28.886Z,15.98
2023-05-15T21:57:16.731Z,16.13
2023-05-15T22:00:07.514Z,16.04
2023-05-15T22:02:55.259Z,16.02
2023-05-15T22:05:43.073Z,15.98
2023-05-15T22:08:30.675Z,15.77
2023-05-15T22:11:18.367Z,15.72
2023-05-15T22:14:06.795Z,15.94
2023-05-15T22:16:54.486Z,15.77
2023-05-15T22:19:42.571Z,15.72
2023-05-15T22:22:30.317Z,15.80
2023-05-15T22:25:17.926Z,15.72
2023-05-15T22:28:05.539Z,15.80
2023-05-15T22:30:53.242Z,15.77
2023-05-15T22:33:43.271Z,15.71
2023-05-15T22:36:36.947Z,15.88
2023-05-15T22:39:29.164Z,15.59
2023-05-15T22:42:16.916Z,15.63
2023-05-15T22:45:06.161Z,15.25
2023-05-15T22:47:53.914Z,15.47
2023-05-15T22:50:41.757Z,15.72
2023-05-15T22:53:29.437Z,15.53
2023-05-15T22:56:17.837Z,15.72
2023-05-15T22:59:05.858Z,15.58
2023-05-15T23:01:53.628Z,15.48
2023-05-15T23:04:41.694Z,15.64
2023-05-15T23:07:31.488Z,15.62
2023-05-15T23:10:21.518Z,15.63
2023-05-15T23:13:09.370Z,15.66
2023-05-15T23:15:57.015Z,15.49
2023-05-15T23:18:47.374Z,15.63
2023-05-15T23:21:47.145Z,15.33
2023-05-15T23:24:39.518Z,15.63
2023-05-15T23:27:27.466Z,15.49
2023-05-15T23:30:15.943Z,15.68
2023-05-15T23:33:03.735Z,15.52
2023-05-15T23:35:52.563Z,15.73
2023-05-15T23:38:40.390Z,15.54
2023-05-15T23:41:28.096Z,15.47
2023-05-15T23:44:15.793Z,15.44
2023-05-15T23:47:03.877Z,15.41
2023-05-15T23:49:51.805Z,15.19
2023-05-15T23:52:39.503Z,15.45
2023-05-15T23:55:27.329Z,15.26
2023-05-15T23:58:15.020Z,15.45
